sensor_id;sensor_type;location;lat;lon;timestamp;temperature;humidity
43772;HTU21D;59066;54.782;32.024;2023-07-29T00:02:18;16.74;87.41
43772;HTU21D;59066;54.782;32.024;2023-07-29T00:04:46;16.60;87.35
43772;HTU21D;59066;54.782;32.024;2023-07-29T00:07:13;16.51;87.74
43772;HTU21D;59066;54.782;32.024;2023-07-29T00:09:40;16.45;88.07
43772;HTU21D;59066;54.782;32.024;2023-07-29T00:12:08;16.33;88.10
43772;HTU21D;59066;54.782;32.024;2023-07-29T00:14:36;16.25;88.34
43772;HTU21D;59066;54.782;32.024;2023-07-29T00:17:03;16.20;88.35
43772;HTU21D;59066;54.782;32.024;2023-07-29T00:19:34;16.15;88.50
43772;HTU21D;59066;54.782;32.024;2023-07-29T00:22:01;16.13;88.54
43772;HTU21D;59066;54.782;32.024;2023-07-29T00:24:29;16.07;88.69
43772;HTU21D;59066;54.782;32.024;2023-07-29T00:26:57;16.00;88.58
43772;HTU21D;59066;54.782;32.024;2023-07-29T00:29:24;15.91;88.67
43772;HTU21D;59066;54.782;32.024;2023-07-29T00:31:52;15.86;88.73
43772;HTU21D;59066;54.782;32.024;2023-07-29T00:34:19;15.78;88.64
43772;HTU21D;59066;54.782;32.024;2023-07-29T00:36:47;15.77;89.14
43772;HTU21D;59066;54.782;32.024;2023-07-29T00:39:14;15.76;88.76
43772;HTU21D;59066;54.782;32.024;2023-07-29T00:41:42;15.77;88.66
43772;HTU21D;59066;54.782;32.024;2023-07-29T00:44:09;15.75;88.52
43772;HTU21D;59066;54.782;32.024;2023-07-29T00:46:38;15.76;88.35
43772;HTU21D;59066;54.782;32.024;2023-07-29T00:49:05;15.76;88.47
43772;HTU21D;59066;54.782;32.024;2023-07-29T00:51:33;15.80;88.80
43772;HTU21D;59066;54.782;32.024;2023-07-29T00:54:01;15.85;88.79
43772;HTU21D;59066;54.782;32.024;2023-07-29T00:56:29;15.80;88.64
43772;HTU21D;59066;54.782;32.024;2023-07-29T00:58:57;15.81;88.76
43772;HTU21D;59066;54.782;32.024;2023-07-29T01:01:28;15.76;88.86
43772;HTU21D;59066;54.782;32.024;2023-07-29T01:03:57;15.73;88.88
43772;HTU21D;59066;54.782;32.024;2023-07-29T01:09:04;15.66;88.85
43772;HTU21D;59066;54.782;32.024;2023-07-29T01:17:02;15.70;89.05
43772;HTU21D;59066;54.782;32.024;2023-07-29T01:22:23;15.67;89.27
43772;HTU21D;59066;54.782;32.024;2023-07-29T01:24:51;15.66;89.48
43772;HTU21D;59066;54.782;32.024;2023-07-29T01:27:18;15.62;89.31
43772;HTU21D;59066;54.782;32.024;2023-07-29T01:29:46;15.62;89.38
43772;HTU21D;59066;54.782;32.024;2023-07-29T01:37:48;15.77;89.77
43772;HTU21D;59066;54.782;32.024;2023-07-29T01:40:18;15.73;89.50
43772;HTU21D;59066;54.782;32.024;2023-07-29T01:42:46;15.70;89.34
43772;HTU21D;59066;54.782;32.024;2023-07-29T01:45:13;15.60;89.28
43772;HTU21D;59066;54.782;32.024;2023-07-29T01:47:42;15.55;89.23
43772;HTU21D;59066;54.782;32.024;2023-07-29T01:50:09;15.53;89.55
43772;HTU21D;59066;54.782;32.024;2023-07-29T01:52:37;15.53;89.68
43772;HTU21D;59066;54.782;32.024;2023-07-29T01:55:05;15.53;89.76
43772;HTU21D;59066;54.782;32.024;2023-07-29T01:57:32;15.52;89.82
43772;HTU21D;59066;54.782;32.024;2023-07-29T02:00:00;15.48;89.79
43772;HTU21D;59066;54.782;32.024;2023-07-29T02:02:28;15.47;89.92
43772;HTU21D;59066;54.782;32.024;2023-07-29T02:04:57;15.49;90.03
43772;HTU21D;59066;54.782;32.024;2023-07-29T02:07:24;15.51;89.91
43772;HTU21D;59066;54.782;32.024;2023-07-29T02:09:54;15.54;89.90
43772;HTU21D;59066;54.782;32.024;2023-07-29T02:12:21;15.55;89.93
43772;HTU21D;59066;54.782;32.024;2023-07-29T02:14:48;15.57;90.00
43772;HTU21D;59066;54.782;32.024;2023-07-29T02:17:16;15.68;90.65
43772;HTU21D;59066;54.782;32.024;2023-07-29T02:19:44;15.76;90.47
43772;HTU21D;59066;54.782;32.024;2023-07-29T02:22:14;15.83;90.27
43772;HTU21D;59066;54.782;32.024;2023-07-29T02:24:41;15.78;89.67
43772;HTU21D;59066;54.782;32.024;2023-07-29T02:27:09;15.77;88.93
43772;HTU21D;59066;54.782;32.024;2023-07-29T02:29:36;15.80;89.22
43772;HTU21D;59066;54.782;32.024;2023-07-29T02:32:04;15.81;89.02
43772;HTU21D;59066;54.782;32.024;2023-07-29T02:34:31;15.86;89.42
43772;HTU21D;59066;54.782;32.024;2023-07-29T02:36:59;15.88;89.57
43772;HTU21D;59066;54.782;32.024;2023-07-29T02:39:27;15.93;89.64
43772;HTU21D;59066;54.782;32.024;2023-07-29T02:41:54;15.98;89.58
43772;HTU21D;59066;54.782;32.024;2023-07-29T02:44:23;15.97;88.47
43772;HTU21D;59066;54.782;32.024;2023-07-29T02:46:50;15.99;88.80
43772;HTU21D;59066;54.782;32.024;2023-07-29T02:49:19;16.15;89.41
43772;HTU21D;59066;54.782;32.024;2023-07-29T02:51:46;16.18;88.70
43772;HTU21D;59066;54.782;32.024;2023-07-29T02:54:16;16.24;88.29
43772;HTU21D;59066;54.782;32.024;2023-07-29T02:56:44;16.26;88.00
43772;HTU21D;59066;54.782;32.024;2023-07-29T02:59:11;16.24;86.93
43772;HTU21D;59066;54.782;32.024;2023-07-29T03:01:38;16.24;86.95
43772;HTU21D;59066;54.782;32.024;2023-07-29T03:04:06;16.26;87.03
43772;HTU21D;59066;54.782;32.024;2023-07-29T03:06:34;16.26;86.29
43772;HTU21D;59066;54.782;32.024;2023-07-29T03:09:01;16.27;86.98
43772;HTU21D;59066;54.782;32.024;2023-07-29T03:11:29;16.30;87.95
43772;HTU21D;59066;54.782;32.024;2023-07-29T03:13:57;16.46;87.76
43772;HTU21D;59066;54.782;32.024;2023-07-29T03:16:26;16.57;87.89
43772;HTU21D;59066;54.782;32.024;2023-07-29T03:18:56;16.54;86.55
43772;HTU21D;59066;54.782;32.024;2023-07-29T03:21:26;16.63;87.19
43772;HTU21D;59066;54.782;32.024;2023-07-29T03:23:54;16.64;86.61
43772;HTU21D;59066;54.782;32.024;2023-07-29T03:26:21;16.66;87.23
43772;HTU21D;59066;54.782;32.024;2023-07-29T03:28:49;16.71;86.19
43772;HTU21D;59066;54.782;32.024;2023-07-29T03:31:16;16.79;87.05
43772;HTU21D;59066;54.782;32.024;2023-07-29T03:33:45;16.87;87.03
43772;HTU21D;59066;54.782;32.024;2023-07-29T03:36:13;16.91;86.45
43772;HTU21D;59066;54.782;32.024;2023-07-29T03:38:41;17.02;86.91
43772;HTU21D;59066;54.782;32.024;2023-07-29T03:41:09;17.13;86.80
43772;HTU21D;59066;54.782;32.024;2023-07-29T03:43:36;17.15;86.65
43772;HTU21D;59066;54.782;32.024;2023-07-29T03:46:04;17.04;86.96
43772;HTU21D;59066;54.782;32.024;2023-07-29T03:48:35;16.98;87.63
43772;HTU21D;59066;54.782;32.024;2023-07-29T03:51:02;16.94;87.99
43772;HTU21D;59066;54.782;32.024;2023-07-29T03:53:30;16.95;88.54
43772;HTU21D;59066;54.782;32.024;2023-07-29T03:55:57;16.96;88.60
43772;HTU21D;59066;54.782;32.024;2023-07-29T03:58:25;16.98;88.54
43772;HTU21D;59066;54.782;32.024;2023-07-29T04:00:52;17.01;88.60
43772;HTU21D;59066;54.782;32.024;2023-07-29T04:03:20;17.10;88.77
43772;HTU21D;59066;54.782;32.024;2023-07-29T04:05:51;17.16;88.48
43772;HTU21D;59066;54.782;32.024;2023-07-29T04:08:18;17.20;87.82
43772;HTU21D;59066;54.782;32.024;2023-07-29T04:10:46;17.17;87.66
43772;HTU21D;59066;54.782;32.024;2023-07-29T04:13:13;17.10;87.96
43772;HTU21D;59066;54.782;32.024;2023-07-29T04:15:41;17.16;87.99
43772;HTU21D;59066;54.782;32.024;2023-07-29T04:18:08;17.15;87.54
43772;HTU21D;59066;54.782;32.024;2023-07-29T04:20:36;17.05;87.27
43772;HTU21D;59066;54.782;32.024;2023-07-29T04:23:04;17.00;87.50
43772;HTU21D;59066;54.782;32.024;2023-07-29T04:25:31;16.99;87.54
43772;HTU21D;59066;54.782;32.024;2023-07-29T04:27:58;17.07;87.65
43772;HTU21D;59066;54.782;32.024;2023-07-29T04:30:26;17.19;87.60
43772;HTU21D;59066;54.782;32.024;2023-07-29T04:32:53;17.19;85.93
43772;HTU21D;59066;54.782;32.024;2023-07-29T04:35:21;17.18;85.29
43772;HTU21D;59066;54.782;32.024;2023-07-29T04:37:48;17.28;85.45
43772;HTU21D;59066;54.782;32.024;2023-07-29T04:40:16;17.40;86.39
43772;HTU21D;59066;54.782;32.024;2023-07-29T04:42:43;17.60;85.97
43772;HTU21D;59066;54.782;32.024;2023-07-29T04:45:11;17.73;84.58
43772;HTU21D;59066;54.782;32.024;2023-07-29T04:47:38;17.91;84.52
43772;HTU21D;59066;54.782;32.024;2023-07-29T04:50:06;18.03;83.08
43772;HTU21D;59066;54.782;32.024;2023-07-29T04:52:35;18.19;84.26
43772;HTU21D;59066;54.782;32.024;2023-07-29T04:55:03;18.23;80.63
43772;HTU21D;59066;54.782;32.024;2023-07-29T04:57:31;18.37;80.99
43772;HTU21D;59066;54.782;32.024;2023-07-29T04:59:58;18.42;80.71
43772;HTU21D;59066;54.782;32.024;2023-07-29T05:02:26;18.53;80.96
43772;HTU21D;59066;54.782;32.024;2023-07-29T05:04:54;18.68;82.12
43772;HTU21D;59066;54.782;32.024;2023-07-29T05:07:22;18.70;82.49
43772;HTU21D;59066;54.782;32.024;2023-07-29T05:09:49;18.71;81.01
43772;HTU21D;59066;54.782;32.024;2023-07-29T05:12:16;18.68;79.49
43772;HTU21D;59066;54.782;32.024;2023-07-29T05:14:44;18.56;79.38
43772;HTU21D;59066;54.782;32.024;2023-07-29T05:17:11;18.67;81.21
43772;HTU21D;59066;54.782;32.024;2023-07-29T05:19:39;18.82;82.36
43772;HTU21D;59066;54.782;32.024;2023-07-29T05:22:06;18.89;81.95
43772;HTU21D;59066;54.782;32.024;2023-07-29T05:24:34;18.92;79.21
43772;HTU21D;59066;54.782;32.024;2023-07-29T05:27:01;18.91;79.06
43772;HTU21D;59066;54.782;32.024;2023-07-29T05:29:28;18.82;78.64
43772;HTU21D;59066;54.782;32.024;2023-07-29T05:31:56;18.91;80.56
43772;HTU21D;59066;54.782;32.024;2023-07-29T05:34:24;18.98;81.85
43772;HTU21D;59066;54.782;32.024;2023-07-29T05:36:51;19.16;81.65
43772;HTU21D;59066;54.782;32.024;2023-07-29T05:39:19;19.21;80.90
43772;HTU21D;59066;54.782;32.024;2023-07-29T05:41:47;19.26;81.81
43772;HTU21D;59066;54.782;32.024;2023-07-29T05:44:14;19.33;81.85
43772;HTU21D;59066;54.782;32.024;2023-07-29T05:46:42;19.38;80.85
43772;HTU21D;59066;54.782;32.024;2023-07-29T05:49:09;19.37;81.80
43772;HTU21D;59066;54.782;32.024;2023-07-29T05:51:37;19.39;82.11
43772;HTU21D;59066;54.782;32.024;2023-07-29T05:54:05;19.44;82.31
43772;HTU21D;59066;54.782;32.024;2023-07-29T05:56:33;19.41;81.89
43772;HTU21D;59066;54.782;32.024;2023-07-29T05:59:00;19.41;82.51
43772;HTU21D;59066;54.782;32.024;2023-07-29T06:01:31;19.41;81.70
43772;HTU21D;59066;54.782;32.024;2023-07-29T06:03:59;19.50;80.98
43772;HTU21D;59066;54.782;32.024;2023-07-29T06:06:27;19.43;81.32
43772;HTU21D;59066;54.782;32.024;2023-07-29T06:08:55;19.60;82.57
43772;HTU21D;59066;54.782;32.024;2023-07-29T06:11:22;19.83;82.47
43772;HTU21D;59066;54.782;32.024;2023-07-29T06:13:50;19.98;81.84
43772;HTU21D;59066;54.782;32.024;2023-07-29T06:16:17;20.10;82.03
43772;HTU21D;59066;54.782;32.024;2023-07-29T06:18:46;20.29;82.06
43772;HTU21D;59066;54.782;32.024;2023-07-29T06:21:13;20.37;81.50
43772;HTU21D;59066;54.782;32.024;2023-07-29T06:23:44;20.45;81.42
43772;HTU21D;59066;54.782;32.024;2023-07-29T06:26:11;20.43;81.57
43772;HTU21D;59066;54.782;32.024;2023-07-29T06:28:39;20.54;81.46
43772;HTU21D;59066;54.782;32.024;2023-07-29T06:31:06;20.65;81.10
43772;HTU21D;59066;54.782;32.024;2023-07-29T06:33:34;20.70;81.08
43772;HTU21D;59066;54.782;32.024;2023-07-29T06:36:02;20.76;80.76
43772;HTU21D;59066;54.782;32.024;2023-07-29T06:38:29;20.72;80.17
43772;HTU21D;59066;54.782;32.024;2023-07-29T06:40:59;20.72;80.50
43772;HTU21D;59066;54.782;32.024;2023-07-29T06:43:26;20.70;80.29
43772;HTU21D;59066;54.782;32.024;2023-07-29T06:45:56;20.68;80.01
43772;HTU21D;59066;54.782;32.024;2023-07-29T06:48:24;20.70;80.20
43772;HTU21D;59066;54.782;32.024;2023-07-29T06:50:51;20.68;79.88
43772;HTU21D;59066;54.782;32.024;2023-07-29T06:53:19;20.69;80.29
43772;HTU21D;59066;54.782;32.024;2023-07-29T06:55:46;20.70;79.79
43772;HTU21D;59066;54.782;32.024;2023-07-29T06:58:14;20.60;79.56
43772;HTU21D;59066;54.782;32.024;2023-07-29T07:00:41;20.57;80.24
43772;HTU21D;59066;54.782;32.024;2023-07-29T07:03:09;20.50;79.66
43772;HTU21D;59066;54.782;32.024;2023-07-29T07:05:36;20.42;79.72
43772;HTU21D;59066;54.782;32.024;2023-07-29T07:08:08;20.48;80.17
43772;HTU21D;59066;54.782;32.024;2023-07-29T07:10:35;20.64;80.64
43772;HTU21D;59066;54.782;32.024;2023-07-29T07:13:02;20.87;80.47
43772;HTU21D;59066;54.782;32.024;2023-07-29T07:15:30;21.05;79.90
43772;HTU21D;59066;54.782;32.024;2023-07-29T07:17:57;21.15;79.68
43772;HTU21D;59066;54.782;32.024;2023-07-29T07:20:25;21.23;79.55
43772;HTU21D;59066;54.782;32.024;2023-07-29T07:22:52;21.24;79.26
43772;HTU21D;59066;54.782;32.024;2023-07-29T07:25:19;21.28;79.63
43772;HTU21D;59066;54.782;32.024;2023-07-29T07:27:47;21.35;79.50
43772;HTU21D;59066;54.782;32.024;2023-07-29T07:30:15;21.38;79.22
43772;HTU21D;59066;54.782;32.024;2023-07-29T07:32:43;21.39;79.33
43772;HTU21D;59066;54.782;32.024;2023-07-29T07:35:10;21.45;79.32
43772;HTU21D;59066;54.782;32.024;2023-07-29T07:37:38;21.51;79.27
43772;HTU21D;59066;54.782;32.024;2023-07-29T07:40:06;21.51;79.10
43772;HTU21D;59066;54.782;32.024;2023-07-29T07:42:34;21.48;78.18
43772;HTU21D;59066;54.782;32.024;2023-07-29T07:45:02;21.43;78.26
43772;HTU21D;59066;54.782;32.024;2023-07-29T07:47:30;21.45;78.75
43772;HTU21D;59066;54.782;32.024;2023-07-29T07:49:57;21.54;78.81
43772;HTU21D;59066;54.782;32.024;2023-07-29T07:52:24;21.53;78.71
43772;HTU21D;59066;54.782;32.024;2023-07-29T07:54:53;21.47;78.72
43772;HTU21D;59066;54.782;32.024;2023-07-29T07:57:21;21.42;78.71
43772;HTU21D;59066;54.782;32.024;2023-07-29T07:59:49;21.37;78.73
43772;HTU21D;59066;54.782;32.024;2023-07-29T08:02:18;21.31;78.03
43772;HTU21D;59066;54.782;32.024;2023-07-29T08:04:45;21.18;77.81
43772;HTU21D;59066;54.782;32.024;2023-07-29T08:07:13;21.14;78.10
43772;HTU21D;59066;54.782;32.024;2023-07-29T08:09:41;21.14;78.53
43772;HTU21D;59066;54.782;32.024;2023-07-29T08:12:08;21.14;78.70
43772;HTU21D;59066;54.782;32.024;2023-07-29T08:14:36;21.09;78.53
43772;HTU21D;59066;54.782;32.024;2023-07-29T08:17:04;21.11;78.70
43772;HTU21D;59066;54.782;32.024;2023-07-29T08:19:31;21.10;78.40
43772;HTU21D;59066;54.782;32.024;2023-07-29T08:21:58;21.05;78.40
43772;HTU21D;59066;54.782;32.024;2023-07-29T08:24:26;20.98;77.72
43772;HTU21D;59066;54.782;32.024;2023-07-29T08:26:53;20.92;77.62
43772;HTU21D;59066;54.782;32.024;2023-07-29T08:29:21;20.86;77.89
43772;HTU21D;59066;54.782;32.024;2023-07-29T08:31:48;20.84;77.40
43772;HTU21D;59066;54.782;32.024;2023-07-29T08:34:16;20.93;78.15
43772;HTU21D;59066;54.782;32.024;2023-07-29T08:36:43;21.07;78.55
43772;HTU21D;59066;54.782;32.024;2023-07-29T08:39:11;21.10;76.13
43772;HTU21D;59066;54.782;32.024;2023-07-29T08:41:59;21.10;75.04
43772;HTU21D;59066;54.782;32.024;2023-07-29T08:44:41;21.20;77.71
43772;HTU21D;59066;54.782;32.024;2023-07-29T08:47:09;21.49;78.82
43772;HTU21D;59066;54.782;32.024;2023-07-29T08:49:37;21.53;77.17
43772;HTU21D;59066;54.782;32.024;2023-07-29T08:52:07;21.73;78.09
43772;HTU21D;59066;54.782;32.024;2023-07-29T08:54:35;21.80;76.44
43772;HTU21D;59066;54.782;32.024;2023-07-29T08:57:03;21.78;76.68
43772;HTU21D;59066;54.782;32.024;2023-07-29T08:59:30;21.74;77.53
43772;HTU21D;59066;54.782;32.024;2023-07-29T09:01:59;21.94;77.04
43772;HTU21D;59066;54.782;32.024;2023-07-29T09:04:26;22.07;77.39
43772;HTU21D;59066;54.782;32.024;2023-07-29T09:06:56;22.26;77.85
43772;HTU21D;59066;54.782;32.024;2023-07-29T09:09:24;22.39;77.03
43772;HTU21D;59066;54.782;32.024;2023-07-29T09:11:52;22.42;75.54
43772;HTU21D;59066;54.782;32.024;2023-07-29T09:14:19;22.44;75.66
43772;HTU21D;59066;54.782;32.024;2023-07-29T09:16:47;22.43;74.79
43772;HTU21D;59066;54.782;32.024;2023-07-29T09:19:15;22.42;74.16
43772;HTU21D;59066;54.782;32.024;2023-07-29T09:21:42;22.42;74.86
43772;HTU21D;59066;54.782;32.024;2023-07-29T09:24:15;22.48;72.58
43772;HTU21D;59066;54.782;32.024;2023-07-29T09:26:51;22.42;71.48
43772;HTU21D;59066;54.782;32.024;2023-07-29T09:29:27;22.43;70.93
43772;HTU21D;59066;54.782;32.024;2023-07-29T09:32:19;22.48;67.06
43772;HTU21D;59066;54.782;32.024;2023-07-29T09:34:50;22.48;70.55
43772;HTU21D;59066;54.782;32.024;2023-07-29T09:37:21;22.53;71.25
43772;HTU21D;59066;54.782;32.024;2023-07-29T09:39:49;22.73;70.77
43772;HTU21D;59066;54.782;32.024;2023-07-29T09:42:22;22.63;67.05
43772;HTU21D;59066;54.782;32.024;2023-07-29T09:44:50;22.62;70.10
43772;HTU21D;59066;54.782;32.024;2023-07-29T09:47:24;22.57;68.85
43772;HTU21D;59066;54.782;32.024;2023-07-29T09:49:53;22.61;70.37
43772;HTU21D;59066;54.782;32.024;2023-07-29T09:52:22;22.58;71.01
43772;HTU21D;59066;54.782;32.024;2023-07-29T09:54:50;22.61;71.86
43772;HTU21D;59066;54.782;32.024;2023-07-29T09:57:18;22.55;71.41
43772;HTU21D;59066;54.782;32.024;2023-07-29T09:59:56;22.42;68.48
43772;HTU21D;59066;54.782;32.024;2023-07-29T10:02:24;22.39;71.59
43772;HTU21D;59066;54.782;32.024;2023-07-29T10:04:55;22.31;71.27
43772;HTU21D;59066;54.782;32.024;2023-07-29T10:07:24;22.22;70.65
43772;HTU21D;59066;54.782;32.024;2023-07-29T10:09:52;22.06;70.54
43772;HTU21D;59066;54.782;32.024;2023-07-29T10:12:20;21.92;71.92
43772;HTU21D;59066;54.782;32.024;2023-07-29T10:14:49;21.85;72.45
43772;HTU21D;59066;54.782;32.024;2023-07-29T10:17:19;21.81;72.10
43772;HTU21D;59066;54.782;32.024;2023-07-29T10:19:48;21.68;71.12
43772;HTU21D;59066;54.782;32.024;2023-07-29T10:22:20;21.58;71.19
43772;HTU21D;59066;54.782;32.024;2023-07-29T10:24:48;21.50;71.15
43772;HTU21D;59066;54.782;32.024;2023-07-29T10:27:20;21.53;71.27
43772;HTU21D;59066;54.782;32.024;2023-07-29T10:29:49;21.54;71.55
43772;HTU21D;59066;54.782;32.024;2023-07-29T10:32:17;21.50;70.77
43772;HTU21D;59066;54.782;32.024;2023-07-29T10:34:45;21.51;71.83
43772;HTU21D;59066;54.782;32.024;2023-07-29T10:37:13;21.47;71.27
43772;HTU21D;59066;54.782;32.024;2023-07-29T10:39:45;21.42;70.77
43772;HTU21D;59066;54.782;32.024;2023-07-29T10:42:18;21.38;71.93
43772;HTU21D;59066;54.782;32.024;2023-07-29T10:44:52;21.35;72.28
43772;HTU21D;59066;54.782;32.024;2023-07-29T10:47:29;21.31;71.38
43772;HTU21D;59066;54.782;32.024;2023-07-29T10:50:00;21.33;72.44
43772;HTU21D;59066;54.782;32.024;2023-07-29T10:52:30;21.33;72.70
43772;HTU21D;59066;54.782;32.024;2023-07-29T10:54:58;21.37;72.76
43772;HTU21D;59066;54.782;32.024;2023-07-29T10:57:32;21.37;73.28
43772;HTU21D;59066;54.782;32.024;2023-07-29T11:00:01;21.57;74.32
43772;HTU21D;59066;54.782;32.024;2023-07-29T11:02:35;21.62;72.61
43772;HTU21D;59066;54.782;32.024;2023-07-29T11:05:16;21.58;73.27
43772;HTU21D;59066;54.782;32.024;2023-07-29T11:07:45;21.59;73.20
43772;HTU21D;59066;54.782;32.024;2023-07-29T11:10:14;21.85;73.82
43772;HTU21D;59066;54.782;32.024;2023-07-29T11:12:44;21.90;73.04
43772;HTU21D;59066;54.782;32.024;2023-07-29T11:15:28;22.38;74.83
43772;HTU21D;59066;54.782;32.024;2023-07-29T11:17:56;23.34;78.23
43772;HTU21D;59066;54.782;32.024;2023-07-29T11:20:26;23.86;75.11
43772;HTU21D;59066;54.782;32.024;2023-07-29T11:22:55;24.56;76.98
43772;HTU21D;59066;54.782;32.024;2023-07-29T11:25:24;25.19;76.41
43772;HTU21D;59066;54.782;32.024;2023-07-29T11:27:53;25.39;74.18
43772;HTU21D;59066;54.782;32.024;2023-07-29T11:30:21;25.19;71.87
43772;HTU21D;59066;54.782;32.024;2023-07-29T11:32:57;24.51;67.91
43772;HTU21D;59066;54.782;32.024;2023-07-29T11:35:25;24.34;69.88
43772;HTU21D;59066;54.782;32.024;2023-07-29T11:37:54;24.10;68.99
43772;HTU21D;59066;54.782;32.024;2023-07-29T11:40:25;23.88;70.25
43772;HTU21D;59066;54.782;32.024;2023-07-29T11:42:53;23.66;70.17
43772;HTU21D;59066;54.782;32.024;2023-07-29T11:45:22;23.55;70.39
43772;HTU21D;59066;54.782;32.024;2023-07-29T11:47:58;23.40;71.32
43772;HTU21D;59066;54.782;32.024;2023-07-29T11:50:26;23.44;72.11
43772;HTU21D;59066;54.782;32.024;2023-07-29T11:52:53;23.35;72.80
43772;HTU21D;59066;54.782;32.024;2023-07-29T11:55:21;23.43;73.22
43772;HTU21D;59066;54.782;32.024;2023-07-29T11:57:51;23.42;73.10
43772;HTU21D;59066;54.782;32.024;2023-07-29T12:00:20;23.43;73.25
43772;HTU21D;59066;54.782;32.024;2023-07-29T12:02:49;23.53;74.46
43772;HTU21D;59066;54.782;32.024;2023-07-29T12:05:17;23.52;72.70
43772;HTU21D;59066;54.782;32.024;2023-07-29T12:07:45;23.39;72.48
43772;HTU21D;59066;54.782;32.024;2023-07-29T12:10:13;23.41;73.47
43772;HTU21D;59066;54.782;32.024;2023-07-29T12:12:50;23.47;72.58
43772;HTU21D;59066;54.782;32.024;2023-07-29T12:15:28;24.01;66.62
43772;HTU21D;59066;54.782;32.024;2023-07-29T12:17:57;24.57;70.64
43772;HTU21D;59066;54.782;32.024;2023-07-29T12:20:25;24.95;76.15
43772;HTU21D;59066;54.782;32.024;2023-07-29T12:22:55;25.57;76.18
43772;HTU21D;59066;54.782;32.024;2023-07-29T12:25:23;25.87;70.11
43772;HTU21D;59066;54.782;32.024;2023-07-29T12:27:50;26.25;73.10
43772;HTU21D;59066;54.782;32.024;2023-07-29T12:30:22;26.32;63.36
43772;HTU21D;59066;54.782;32.024;2023-07-29T12:32:50;25.76;65.96
43772;HTU21D;59066;54.782;32.024;2023-07-29T12:35:17;25.81;69.23
43772;HTU21D;59066;54.782;32.024;2023-07-29T12:37:45;25.90;69.23
43772;HTU21D;59066;54.782;32.024;2023-07-29T12:40:25;25.99;65.65
43772;HTU21D;59066;54.782;32.024;2023-07-29T12:42:54;25.64;69.39
43772;HTU21D;59066;54.782;32.024;2023-07-29T12:45:21;25.35;69.85
43772;HTU21D;59066;54.782;32.024;2023-07-29T12:47:55;25.07;68.21
43772;HTU21D;59066;54.782;32.024;2023-07-29T12:50:23;25.16;71.85
43772;HTU21D;59066;54.782;32.024;2023-07-29T12:52:50;25.40;72.26
43772;HTU21D;59066;54.782;32.024;2023-07-29T12:55:18;25.81;72.10
43772;HTU21D;59066;54.782;32.024;2023-07-29T12:57:49;26.31;72.12
43772;HTU21D;59066;54.782;32.024;2023-07-29T13:00:17;26.45;72.70
43772;HTU21D;59066;54.782;32.024;2023-07-29T13:02:45;26.53;73.69
43772;HTU21D;59066;54.782;32.024;2023-07-29T13:05:12;26.42;73.01
43772;HTU21D;59066;54.782;32.024;2023-07-29T13:07:40;26.84;74.41
43772;HTU21D;59066;54.782;32.024;2023-07-29T13:10:09;27.22;72.95
43772;HTU21D;59066;54.782;32.024;2023-07-29T13:12:36;26.92;72.77
43772;HTU21D;59066;54.782;32.024;2023-07-29T13:15:04;26.25;69.34
43772;HTU21D;59066;54.782;32.024;2023-07-29T13:17:33;25.65;69.18
43772;HTU21D;59066;54.782;32.024;2023-07-29T13:20:01;25.45;69.75
43772;HTU21D;59066;54.782;32.024;2023-07-29T13:22:28;25.24;70.33
43772;HTU21D;59066;54.782;32.024;2023-07-29T13:24:55;25.02;70.95
43772;HTU21D;59066;54.782;32.024;2023-07-29T13:27:23;24.91;71.72
43772;HTU21D;59066;54.782;32.024;2023-07-29T13:29:52;25.29;73.07
43772;HTU21D;59066;54.782;32.024;2023-07-29T13:32:19;26.31;74.03
43772;HTU21D;59066;54.782;32.024;2023-07-29T13:34:47;26.46;74.57
43772;HTU21D;59066;54.782;32.024;2023-07-29T13:37:14;26.35;72.37
43772;HTU21D;59066;54.782;32.024;2023-07-29T13:39:42;25.95;71.10
43772;HTU21D;59066;54.782;32.024;2023-07-29T13:42:09;25.59;69.31
43772;HTU21D;59066;54.782;32.024;2023-07-29T13:44:37;25.31;70.82
43772;HTU21D;59066;54.782;32.024;2023-07-29T13:47:04;25.28;69.59
43772;HTU21D;59066;54.782;32.024;2023-07-29T13:49:33;25.05;71.02
43772;HTU21D;59066;54.782;32.024;2023-07-29T13:52:00;24.95;70.90
43772;HTU21D;59066;54.782;32.024;2023-07-29T13:54:28;24.64;71.63
43772;HTU21D;59066;54.782;32.024;2023-07-29T13:56:56;24.56;71.34
43772;HTU21D;59066;54.782;32.024;2023-07-29T13:59:23;24.43;70.63
43772;HTU21D;59066;54.782;32.024;2023-07-29T14:01:50;25.29;74.09
43772;HTU21D;59066;54.782;32.024;2023-07-29T14:04:18;25.40;74.95
43772;HTU21D;59066;54.782;32.024;2023-07-29T14:06:45;25.38;74.57
43772;HTU21D;59066;54.782;32.024;2023-07-29T14:09:16;26.01;76.25
43772;HTU21D;59066;54.782;32.024;2023-07-29T14:11:43;26.27;75.08
43772;HTU21D;59066;54.782;32.024;2023-07-29T14:14:11;26.23;72.10
43772;HTU21D;59066;54.782;32.024;2023-07-29T14:16:38;26.63;75.73
43772;HTU21D;59066;54.782;32.024;2023-07-29T14:19:06;26.57;74.92
43772;HTU21D;59066;54.782;32.024;2023-07-29T14:21:34;26.40;73.29
43772;HTU21D;59066;54.782;32.024;2023-07-29T14:24:01;26.30;70.35
43772;HTU21D;59066;54.782;32.024;2023-07-29T14:26:28;25.97;72.60
43772;HTU21D;59066;54.782;32.024;2023-07-29T14:28:56;26.49;72.43
43772;HTU21D;59066;54.782;32.024;2023-07-29T14:31:23;26.07;68.96
43772;HTU21D;59066;54.782;32.024;2023-07-29T14:33:51;26.11;72.34
43772;HTU21D;59066;54.782;32.024;2023-07-29T14:36:18;27.05;74.31
43772;HTU21D;59066;54.782;32.024;2023-07-29T14:38:46;27.76;75.21
43772;HTU21D;59066;54.782;32.024;2023-07-29T14:41:13;28.65;75.66
43772;HTU21D;59066;54.782;32.024;2023-07-29T14:43:41;29.57;75.99
43772;HTU21D;59066;54.782;32.024;2023-07-29T14:46:08;29.88;72.54
43772;HTU21D;59066;54.782;32.024;2023-07-29T14:48:36;30.50;72.56
43772;HTU21D;59066;54.782;32.024;2023-07-29T14:51:03;30.75;71.67
43772;HTU21D;59066;54.782;32.024;2023-07-29T14:53:33;30.05;69.26
43772;HTU21D;59066;54.782;32.024;2023-07-29T14:56:00;29.71;68.60
43772;HTU21D;59066;54.782;32.024;2023-07-29T14:58:28;29.26;67.49
43772;HTU21D;59066;54.782;32.024;2023-07-29T15:00:56;28.69;66.00
43772;HTU21D;59066;54.782;32.024;2023-07-29T15:03:26;27.85;65.45
43772;HTU21D;59066;54.782;32.024;2023-07-29T15:05:54;26.93;67.27
43772;HTU21D;59066;54.782;32.024;2023-07-29T15:08:21;27.07;68.04
43772;HTU21D;59066;54.782;32.024;2023-07-29T15:10:49;27.68;66.97
43772;HTU21D;59066;54.782;32.024;2023-07-29T15:13:16;28.15;71.00
43772;HTU21D;59066;54.782;32.024;2023-07-29T15:15:44;28.42;70.74
43772;HTU21D;59066;54.782;32.024;2023-07-29T15:18:11;28.26;69.47
43772;HTU21D;59066;54.782;32.024;2023-07-29T15:20:39;27.88;68.49
43772;HTU21D;59066;54.782;32.024;2023-07-29T15:23:06;27.53;67.90
43772;HTU21D;59066;54.782;32.024;2023-07-29T15:25:34;26.86;68.76
43772;HTU21D;59066;54.782;32.024;2023-07-29T15:28:01;26.52;68.57